sensor_id;sensor_type;location;lat;lon;timestamp;P1;durP1;ratioP1;P2;durP2;ratioP2
13185;SDS011;6658;53.080;7.428;2023-06-19T00:02:09;5.53;;;4.53;;
13185;SDS011;6658;53.080;7.428;2023-06-19T00:04:35;5.07;;;4.17;;
13185;SDS011;6658;53.080;7.428;2023-06-19T00:07:00;4.90;;;4.40;;
13185;SDS011;6658;53.080;7.428;2023-06-19T00:09:26;4.93;;;4.53;;
13185;SDS011;6658;53.080;7.428;2023-06-19T00:11:52;4.50;;;4.13;;
13185;SDS011;6658;53.080;7.428;2023-06-19T00:14:18;4.93;;;4.47;;
13185;SDS011;6658;53.080;7.428;2023-06-19T00:16:44;5.40;;;4.30;;
13185;SDS011;6658;53.080;7.428;2023-06-19T00:19:09;4.70;;;4.20;;
13185;SDS011;6658;53.080;7.428;2023-06-19T00:21:36;5.17;;;4.67;;
13185;SDS011;6658;53.080;7.428;2023-06-19T00:24:03;4.77;;;4.30;;
13185;SDS011;6658;53.080;7.428;2023-06-19T00:26:29;4.90;;;4.50;;
13185;SDS011;6658;53.080;7.428;2023-06-19T00:28:55;5.17;;;4.67;;
13185;SDS011;6658;53.080;7.428;2023-06-19T00:31:21;4.60;;;4.30;;
13185;SDS011;6658;53.080;7.428;2023-06-19T00:33:47;5.40;;;4.90;;
13185;SDS011;6658;53.080;7.428;2023-06-19T00:36:14;5.10;;;4.60;;
13185;SDS011;6658;53.080;7.428;2023-06-19T00:38:41;6.13;;;4.50;;
13185;SDS011;6658;53.080;7.428;2023-06-19T00:41:07;5.60;;;4.53;;
13185;SDS011;6658;53.080;7.428;2023-06-19T00:43:33;5.13;;;4.60;;
13185;SDS011;6658;53.080;7.428;2023-06-19T00:46:00;4.67;;;4.30;;
13185;SDS011;6658;53.080;7.428;2023-06-19T00:48:29;4.93;;;4.50;;
13185;SDS011;6658;53.080;7.428;2023-06-19T00:50:56;5.20;;;4.80;;
13185;SDS011;6658;53.080;7.428;2023-06-19T00:53:23;4.93;;;4.53;;
13185;SDS011;6658;53.080;7.428;2023-06-19T00:55:50;5.07;;;4.67;;
13185;SDS011;6658;53.080;7.428;2023-06-19T00:58:19;5.03;;;4.63;;
13185;SDS011;6658;53.080;7.428;2023-06-19T01:00:46;4.80;;;4.40;;
13185;SDS011;6658;53.080;7.428;2023-06-19T01:03:12;5.53;;;4.73;;
13185;SDS011;6658;53.080;7.428;2023-06-19T01:05:38;6.90;;;4.73;;
13185;SDS011;6658;53.080;7.428;2023-06-19T01:10:58;4.87;;;4.47;;
13185;SDS011;6658;53.080;7.428;2023-06-19T01:16:12;5.20;;;4.70;;
13185;SDS011;6658;53.080;7.428;2023-06-19T01:18:39;5.40;;;4.90;;
13185;SDS011;6658;53.080;7.428;2023-06-19T01:21:09;5.33;;;4.83;;
13185;SDS011;6658;53.080;7.428;2023-06-19T01:23:36;5.37;;;4.90;;
13185;SDS011;6658;53.080;7.428;2023-06-19T01:26:02;5.00;;;4.57;;
13185;SDS011;6658;53.080;7.428;2023-06-19T01:28:27;4.77;;;4.37;;
13185;SDS011;6658;53.080;7.428;2023-06-19T01:30:53;5.30;;;4.80;;
13185;SDS011;6658;53.080;7.428;2023-06-19T01:33:23;5.20;;;4.70;;
13185;SDS011;6658;53.080;7.428;2023-06-19T01:35:51;4.97;;;4.47;;
13185;SDS011;6658;53.080;7.428;2023-06-19T01:38:19;5.30;;;4.80;;
13185;SDS011;6658;53.080;7.428;2023-06-19T01:40:48;5.00;;;4.60;;
13185;SDS011;6658;53.080;7.428;2023-06-19T01:43:14;6.57;;;5.27;;
13185;SDS011;6658;53.080;7.428;2023-06-19T01:45:41;5.80;;;4.70;;
13185;SDS011;6658;53.080;7.428;2023-06-19T01:48:07;4.93;;;4.53;;
13185;SDS011;6658;53.080;7.428;2023-06-19T01:50:33;5.17;;;4.57;;
13185;SDS011;6658;53.080;7.428;2023-06-19T01:52:59;5.87;;;4.80;;
13185;SDS011;6658;53.080;7.428;2023-06-19T01:55:25;4.90;;;4.50;;
13185;SDS011;6658;53.080;7.428;2023-06-19T01:57:51;5.07;;;4.67;;
13185;SDS011;6658;53.080;7.428;2023-06-19T02:00:16;5.00;;;4.50;;
13185;SDS011;6658;53.080;7.428;2023-06-19T02:02:43;5.57;;;4.90;;
13185;SDS011;6658;53.080;7.428;2023-06-19T02:05:09;5.03;;;4.63;;
13185;SDS011;6658;53.080;7.428;2023-06-19T02:07:35;5.00;;;4.60;;
13185;SDS011;6658;53.080;7.428;2023-06-19T02:10:00;5.10;;;4.60;;
13185;SDS011;6658;53.080;7.428;2023-06-19T02:12:26;5.40;;;5.00;;
13185;SDS011;6658;53.080;7.428;2023-06-19T02:14:52;4.97;;;4.47;;
13185;SDS011;6658;53.080;7.428;2023-06-19T02:17:18;5.00;;;4.60;;
13185;SDS011;6658;53.080;7.428;2023-06-19T02:19:43;4.87;;;4.47;;
13185;SDS011;6658;53.080;7.428;2023-06-19T02:22:09;5.00;;;4.60;;
13185;SDS011;6658;53.080;7.428;2023-06-19T02:24:35;5.20;;;4.70;;
13185;SDS011;6658;53.080;7.428;2023-06-19T02:27:02;4.97;;;4.47;;
13185;SDS011;6658;53.080;7.428;2023-06-19T02:29:27;5.03;;;4.53;;
13185;SDS011;6658;53.080;7.428;2023-06-19T02:31:55;7.73;;;4.90;;
13185;SDS011;6658;53.080;7.428;2023-06-19T02:34:20;5.57;;;5.07;;
13185;SDS011;6658;53.080;7.428;2023-06-19T02:36:49;4.80;;;4.40;;
13185;SDS011;6658;53.080;7.428;2023-06-19T02:39:15;4.63;;;4.23;;
13185;SDS011;6658;53.080;7.428;2023-06-19T02:41:41;5.23;;;4.73;;
13185;SDS011;6658;53.080;7.428;2023-06-19T02:44:11;5.20;;;4.80;;
13185;SDS011;6658;53.080;7.428;2023-06-19T02:46:39;5.37;;;4.97;;
13185;SDS011;6658;53.080;7.428;2023-06-19T02:49:05;5.67;;;4.70;;
13185;SDS011;6658;53.080;7.428;2023-06-19T02:51:31;5.30;;;4.83;;
13185;SDS011;6658;53.080;7.428;2023-06-19T02:53:57;4.97;;;4.47;;
13185;SDS011;6658;53.080;7.428;2023-06-19T02:56:23;4.90;;;4.50;;
13185;SDS011;6658;53.080;7.428;2023-06-19T02:58:53;4.90;;;4.50;;
13185;SDS011;6658;53.080;7.428;2023-06-19T03:01:19;5.03;;;4.63;;
13185;SDS011;6658;53.080;7.428;2023-06-19T03:03:45;5.73;;;4.90;;
13185;SDS011;6658;53.080;7.428;2023-06-19T03:06:11;5.23;;;4.83;;
13185;SDS011;6658;53.080;7.428;2023-06-19T03:08:38;5.13;;;4.63;;
13185;SDS011;6658;53.080;7.428;2023-06-19T03:11:04;5.43;;;4.93;;
13185;SDS011;6658;53.080;7.428;2023-06-19T03:16:15;5.37;;;4.87;;
13185;SDS011;6658;53.080;7.428;2023-06-19T03:18:41;5.07;;;4.10;;
13185;SDS011;6658;53.080;7.428;2023-06-19T03:21:09;5.00;;;4.53;;
13185;SDS011;6658;53.080;7.428;2023-06-19T03:23:36;4.77;;;4.37;;
13185;SDS011;6658;53.080;7.428;2023-06-19T03:26:02;5.57;;;4.57;;
13185;SDS011;6658;53.080;7.428;2023-06-19T03:28:28;5.30;;;4.50;;
13185;SDS011;6658;53.080;7.428;2023-06-19T03:30:53;4.73;;;4.33;;
13185;SDS011;6658;53.080;7.428;2023-06-19T03:33:19;5.30;;;4.80;;
13185;SDS011;6658;53.080;7.428;2023-06-19T03:35:45;5.90;;;5.17;;
13185;SDS011;6658;53.080;7.428;2023-06-19T03:38:11;5.33;;;4.90;;
13185;SDS011;6658;53.080;7.428;2023-06-19T03:40:36;5.00;;;4.60;;
13185;SDS011;6658;53.080;7.428;2023-06-19T03:43:02;4.93;;;4.53;;
13185;SDS011;6658;53.080;7.428;2023-06-19T03:45:28;6.80;;;5.03;;
13185;SDS011;6658;53.080;7.428;2023-06-19T03:47:53;5.43;;;4.93;;
13185;SDS011;6658;53.080;7.428;2023-06-19T03:50:19;5.10;;;4.70;;
13185;SDS011;6658;53.080;7.428;2023-06-19T03:52:45;4.97;;;4.57;;
13185;SDS011;6658;53.080;7.428;2023-06-19T03:55:10;5.57;;;5.07;;
13185;SDS011;6658;53.080;7.428;2023-06-19T03:57:36;5.00;;;4.57;;
13185;SDS011;6658;53.080;7.428;2023-06-19T04:00:02;4.93;;;4.53;;
13185;SDS011;6658;53.080;7.428;2023-06-19T04:02:32;5.57;;;5.07;;
13185;SDS011;6658;53.080;7.428;2023-06-19T04:04:58;5.20;;;4.67;;
13185;SDS011;6658;53.080;7.428;2023-06-19T04:07:24;6.80;;;4.90;;
13185;SDS011;6658;53.080;7.428;2023-06-19T04:09:50;4.83;;;4.43;;
13185;SDS011;6658;53.080;7.428;2023-06-19T04:12:15;5.17;;;4.77;;
13185;SDS011;6658;53.080;7.428;2023-06-19T04:14:41;5.63;;;5.13;;
13185;SDS011;6658;53.080;7.428;2023-06-19T04:17:06;4.83;;;4.30;;
13185;SDS011;6658;53.080;7.428;2023-06-19T04:19:32;5.30;;;4.90;;
13185;SDS011;6658;53.080;7.428;2023-06-19T04:21:58;6.07;;;4.80;;
13185;SDS011;6658;53.080;7.428;2023-06-19T04:24:23;4.97;;;4.57;;
13185;SDS011;6658;53.080;7.428;2023-06-19T04:26:49;5.60;;;5.10;;
13185;SDS011;6658;53.080;7.428;2023-06-19T04:29:15;6.93;;;5.23;;
13185;SDS011;6658;53.080;7.428;2023-06-19T04:31:45;5.37;;;4.63;;
13185;SDS011;6658;53.080;7.428;2023-06-19T04:34:15;5.33;;;4.83;;
13185;SDS011;6658;53.080;7.428;2023-06-19T04:36:43;5.30;;;4.90;;
13185;SDS011;6658;53.080;7.428;2023-06-19T04:39:09;5.37;;;4.70;;
13185;SDS011;6658;53.080;7.428;2023-06-19T04:41:35;5.37;;;4.90;;
13185;SDS011;6658;53.080;7.428;2023-06-19T04:44:04;5.00;;;4.60;;
13185;SDS011;6658;53.080;7.428;2023-06-19T04:46:31;5.10;;;4.63;;
13185;SDS011;6658;53.080;7.428;2023-06-19T04:48:56;4.67;;;4.27;;
13185;SDS011;6658;53.080;7.428;2023-06-19T04:51:22;5.03;;;4.63;;
13185;SDS011;6658;53.080;7.428;2023-06-19T04:53:48;5.20;;;4.73;;
13185;SDS011;6658;53.080;7.428;2023-06-19T04:56:14;6.23;;;4.70;;
13185;SDS011;6658;53.080;7.428;2023-06-19T04:58:40;5.47;;;5.07;;
13185;SDS011;6658;53.080;7.428;2023-06-19T05:01:14;5.43;;;4.60;;
13185;SDS011;6658;53.080;7.428;2023-06-19T05:03:41;5.57;;;5.07;;
13185;SDS011;6658;53.080;7.428;2023-06-19T05:06:12;5.33;;;4.40;;
13185;SDS011;6658;53.080;7.428;2023-06-19T05:08:38;6.00;;;4.30;;
13185;SDS011;6658;53.080;7.428;2023-06-19T05:11:03;5.20;;;4.40;;
13185;SDS011;6658;53.080;7.428;2023-06-19T05:13:29;5.00;;;4.50;;
13185;SDS011;6658;53.080;7.428;2023-06-19T05:15:55;4.40;;;4.03;;
13185;SDS011;6658;53.080;7.428;2023-06-19T05:18:23;5.00;;;4.60;;
13185;SDS011;6658;53.080;7.428;2023-06-19T05:20:49;6.13;;;4.65;;
13185;SDS011;6658;53.080;7.428;2023-06-19T05:23:14;4.65;;;4.25;;
13185;SDS011;6658;53.080;7.428;2023-06-19T05:25:40;5.00;;;4.57;;
13185;SDS011;6658;53.080;7.428;2023-06-19T05:28:07;6.22;;;4.13;;
13185;SDS011;6658;53.080;7.428;2023-06-19T05:30:33;4.65;;;4.25;;
13185;SDS011;6658;53.080;7.428;2023-06-19T05:33:00;4.95;;;4.50;;
13185;SDS011;6658;53.080;7.428;2023-06-19T05:35:25;5.35;;;4.55;;
13185;SDS011;6658;53.080;7.428;2023-06-19T05:37:51;5.50;;;4.45;;
13185;SDS011;6658;53.080;7.428;2023-06-19T05:40:17;4.43;;;3.90;;
13185;SDS011;6658;53.080;7.428;2023-06-19T05:42:43;6.00;;;4.38;;
13185;SDS011;6658;53.080;7.428;2023-06-19T05:45:08;4.93;;;4.22;;
13185;SDS011;6658;53.080;7.428;2023-06-19T05:47:34;4.38;;;4.00;;
13185;SDS011;6658;53.080;7.428;2023-06-19T05:50:00;4.85;;;4.30;;
13185;SDS011;6658;53.080;7.428;2023-06-19T05:52:26;5.30;;;4.47;;
13185;SDS011;6658;53.080;7.428;2023-06-19T05:54:52;4.80;;;4.40;;
13185;SDS011;6658;53.080;7.428;2023-06-19T05:57:19;3.90;;;3.53;;
13185;SDS011;6658;53.080;7.428;2023-06-19T05:59:47;4.53;;;4.13;;
13185;SDS011;6658;53.080;7.428;2023-06-19T06:02:13;4.80;;;4.40;;
13185;SDS011;6658;53.080;7.428;2023-06-19T06:04:40;5.30;;;4.18;;
13185;SDS011;6658;53.080;7.428;2023-06-19T06:07:06;4.60;;;4.20;;
13185;SDS011;6658;53.080;7.428;2023-06-19T06:09:31;6.20;;;5.18;;
13185;SDS011;6658;53.080;7.428;2023-06-19T06:12:00;4.45;;;4.05;;
13185;SDS011;6658;53.080;7.428;2023-06-19T06:14:26;4.00;;;3.70;;
13185;SDS011;6658;53.080;7.428;2023-06-19T06:16:52;4.00;;;3.70;;
13185;SDS011;6658;53.080;7.428;2023-06-19T06:19:19;3.60;;;3.30;;
13185;SDS011;6658;53.080;7.428;2023-06-19T06:21:47;3.80;;;3.47;;
13185;SDS011;6658;53.080;7.428;2023-06-19T06:24:13;3.65;;;3.35;;
13185;SDS011;6658;53.080;7.428;2023-06-19T06:26:39;3.83;;;3.53;;
13185;SDS011;6658;53.080;7.428;2023-06-19T06:29:04;3.58;;;3.30;;
13185;SDS011;6658;53.080;7.428;2023-06-19T06:31:30;3.35;;;3.05;;
13185;SDS011;6658;53.080;7.428;2023-06-19T06:33:56;3.65;;;3.13;;
13185;SDS011;6658;53.080;7.428;2023-06-19T06:36:21;4.45;;;2.95;;
13185;SDS011;6658;53.080;7.428;2023-06-19T06:38:47;3.83;;;3.53;;
13185;SDS011;6658;53.080;7.428;2023-06-19T06:41:13;3.28;;;3.03;;
13185;SDS011;6658;53.080;7.428;2023-06-19T06:43:40;2.78;;;2.58;;
13185;SDS011;6658;53.080;7.428;2023-06-19T06:46:07;3.13;;;2.75;;
13185;SDS011;6658;53.080;7.428;2023-06-19T06:48:33;3.22;;;2.58;;
13185;SDS011;6658;53.080;7.428;2023-06-19T06:50:59;2.90;;;2.50;;
13185;SDS011;6658;53.080;7.428;2023-06-19T06:53:26;2.60;;;2.40;;
13185;SDS011;6658;53.080;7.428;2023-06-19T06:55:57;2.92;;;1.90;;
13185;SDS011;6658;53.080;7.428;2023-06-19T06:58:24;2.60;;;2.40;;
13185;SDS011;6658;53.080;7.428;2023-06-19T07:00:50;2.40;;;2.20;;
13185;SDS011;6658;53.080;7.428;2023-06-19T07:03:16;2.83;;;2.63;;
13185;SDS011;6658;53.080;7.428;2023-06-19T07:05:43;2.28;;;2.08;;
13185;SDS011;6658;53.080;7.428;2023-06-19T07:08:09;3.60;;;2.42;;
13185;SDS011;6658;53.080;7.428;2023-06-19T07:10:34;2.58;;;2.38;;
13185;SDS011;6658;53.080;7.428;2023-06-19T07:13:00;3.10;;;2.88;;
13185;SDS011;6658;53.080;7.428;2023-06-19T07:15:26;2.30;;;2.05;;
13185;SDS011;6658;53.080;7.428;2023-06-19T07:17:51;2.42;;;2.22;;
13185;SDS011;6658;53.080;7.428;2023-06-19T07:20:17;3.78;;;2.50;;
13185;SDS011;6658;53.080;7.428;2023-06-19T07:22:43;2.30;;;2.10;;
13185;SDS011;6658;53.080;7.428;2023-06-19T07:25:10;2.40;;;2.22;;
13185;SDS011;6658;53.080;7.428;2023-06-19T07:27:36;2.30;;;2.10;;
13185;SDS011;6658;53.080;7.428;2023-06-19T07:30:02;2.40;;;2.20;;
13185;SDS011;6658;53.080;7.428;2023-06-19T07:32:28;2.40;;;2.20;;
13185;SDS011;6658;53.080;7.428;2023-06-19T07:34:54;3.00;;;1.85;;
13185;SDS011;6658;53.080;7.428;2023-06-19T07:37:20;4.93;;;2.00;;
13185;SDS011;6658;53.080;7.428;2023-06-19T07:39:46;2.45;;;2.30;;
13185;SDS011;6658;53.080;7.428;2023-06-19T07:42:13;2.15;;;1.85;;
13185;SDS011;6658;53.080;7.428;2023-06-19T07:44:40;2.00;;;1.90;;
13185;SDS011;6658;53.080;7.428;2023-06-19T07:47:06;3.35;;;2.22;;
13185;SDS011;6658;53.080;7.428;2023-06-19T07:49:33;2.30;;;2.10;;
13185;SDS011;6658;53.080;7.428;2023-06-19T07:51:59;4.70;;;2.57;;
13185;SDS011;6658;53.080;7.428;2023-06-19T07:54:24;2.50;;;2.30;;
13185;SDS011;6658;53.080;7.428;2023-06-19T07:56:51;3.03;;;2.17;;
13185;SDS011;6658;53.080;7.428;2023-06-19T07:59:17;3.10;;;2.70;;
13185;SDS011;6658;53.080;7.428;2023-06-19T08:01:43;2.50;;;2.30;;
13185;SDS011;6658;53.080;7.428;2023-06-19T08:04:08;3.40;;;2.40;;
13185;SDS011;6658;53.080;7.428;2023-06-19T08:06:34;2.70;;;2.40;;
13185;SDS011;6658;53.080;7.428;2023-06-19T08:09:00;3.17;;;2.87;;
13185;SDS011;6658;53.080;7.428;2023-06-19T08:11:26;3.30;;;3.00;;
13185;SDS011;6658;53.080;7.428;2023-06-19T08:13:51;3.93;;;2.90;;
13185;SDS011;6658;53.080;7.428;2023-06-19T08:16:17;3.20;;;3.00;;
13185;SDS011;6658;53.080;7.428;2023-06-19T08:18:43;3.10;;;2.90;;
13185;SDS011;6658;53.080;7.428;2023-06-19T08:21:10;4.17;;;3.00;;
13185;SDS011;6658;53.080;7.428;2023-06-19T08:23:36;3.47;;;3.00;;
13185;SDS011;6658;53.080;7.428;2023-06-19T08:26:04;3.40;;;3.10;;
13185;SDS011;6658;53.080;7.428;2023-06-19T08:28:33;3.60;;;3.30;;
13185;SDS011;6658;53.080;7.428;2023-06-19T08:31:00;3.40;;;3.10;;
13185;SDS011;6658;53.080;7.428;2023-06-19T08:33:26;5.73;;;3.37;;
13185;SDS011;6658;53.080;7.428;2023-06-19T08:35:52;3.63;;;3.30;;
13185;SDS011;6658;53.080;7.428;2023-06-19T08:38:18;3.50;;;3.20;;
13185;SDS011;6658;53.080;7.428;2023-06-19T08:40:44;3.83;;;3.53;;
13185;SDS011;6658;53.080;7.428;2023-06-19T08:43:10;4.90;;;3.73;;
13185;SDS011;6658;53.080;7.428;2023-06-19T08:45:36;3.63;;;3.33;;
13185;SDS011;6658;53.080;7.428;2023-06-19T08:48:02;5.57;;;4.03;;
13185;SDS011;6658;53.080;7.428;2023-06-19T08:50:29;3.60;;;3.30;;
13185;SDS011;6658;53.080;7.428;2023-06-19T08:52:57;3.20;;;3.00;;
13185;SDS011;6658;53.080;7.428;2023-06-19T08:55:23;3.23;;;2.93;;
13185;SDS011;6658;53.080;7.428;2023-06-19T08:57:50;3.13;;;2.83;;
13185;SDS011;6658;53.080;7.428;2023-06-19T09:00:26;8.70;;;3.77;;
13185;SDS011;6658;53.080;7.428;2023-06-19T09:02:58;3.20;;;2.90;;
13185;SDS011;6658;53.080;7.428;2023-06-19T09:05:26;3.47;;;3.17;;
13185;SDS011;6658;53.080;7.428;2023-06-19T09:07:56;3.33;;;3.03;;
13185;SDS011;6658;53.080;7.428;2023-06-19T09:10:25;3.27;;;2.80;;
13185;SDS011;6658;53.080;7.428;2023-06-19T09:12:58;3.40;;;3.07;;
13185;SDS011;6658;53.080;7.428;2023-06-19T09:15:35;3.80;;;2.83;;
13185;SDS011;6658;53.080;7.428;2023-06-19T09:20:38;3.00;;;2.80;;
13185;SDS011;6658;53.080;7.428;2023-06-19T09:23:13;3.20;;;3.00;;
13185;SDS011;6658;53.080;7.428;2023-06-19T09:28:23;3.33;;;3.13;;
13185;SDS011;6658;53.080;7.428;2023-06-19T09:30:53;4.50;;;3.37;;
13185;SDS011;6658;53.080;7.428;2023-06-19T09:33:27;3.87;;;3.57;;
13185;SDS011;6658;53.080;7.428;2023-06-19T09:35:54;3.90;;;3.57;;
13185;SDS011;6658;53.080;7.428;2023-06-19T09:38:25;3.93;;;3.60;;
13185;SDS011;6658;53.080;7.428;2023-06-19T09:40:53;3.80;;;3.50;;
13185;SDS011;6658;53.080;7.428;2023-06-19T09:43:24;3.67;;;3.37;;
13185;SDS011;6658;53.080;7.428;2023-06-19T09:45:50;3.90;;;3.60;;
13185;SDS011;6658;53.080;7.428;2023-06-19T09:48:20;4.63;;;4.33;;
13185;SDS011;6658;53.080;7.428;2023-06-19T09:50:54;5.30;;;4.90;;
13185;SDS011;6658;53.080;7.428;2023-06-19T09:53:25;5.00;;;4.60;;
13185;SDS011;6658;53.080;7.428;2023-06-19T09:55:51;5.57;;;5.17;;
13185;SDS011;6658;53.080;7.428;2023-06-19T09:58:20;4.70;;;4.27;;
13185;SDS011;6658;53.080;7.428;2023-06-19T10:00:46;4.77;;;4.37;;
13185;SDS011;6658;53.080;7.428;2023-06-19T10:03:16;5.07;;;4.70;;
13185;SDS011;6658;53.080;7.428;2023-06-19T10:05:42;4.93;;;4.50;;
13185;SDS011;6658;53.080;7.428;2023-06-19T10:08:08;5.00;;;4.60;;
13185;SDS011;6658;53.080;7.428;2023-06-19T10:10:33;5.03;;;4.53;;
13185;SDS011;6658;53.080;7.428;2023-06-19T10:13:00;5.10;;;4.70;;
13185;SDS011;6658;53.080;7.428;2023-06-19T10:15:40;5.10;;;4.50;;
13185;SDS011;6658;53.080;7.428;2023-06-19T10:18:12;5.73;;;5.27;;
13185;SDS011;6658;53.080;7.428;2023-06-19T10:20:42;7.00;;;5.40;;
13185;SDS011;6658;53.080;7.428;2023-06-19T10:23:15;5.90;;;5.33;;
13185;SDS011;6658;53.080;7.428;2023-06-19T10:25:46;5.60;;;5.20;;
13185;SDS011;6658;53.080;7.428;2023-06-19T10:28:26;5.30;;;4.90;;
13185;SDS011;6658;53.080;7.428;2023-06-19T10:30:54;5.33;;;4.77;;
13185;SDS011;6658;53.080;7.428;2023-06-19T10:33:23;5.60;;;5.20;;
13185;SDS011;6658;53.080;7.428;2023-06-19T10:35:50;5.80;;;5.00;;
13185;SDS011;6658;53.080;7.428;2023-06-19T10:38:16;5.63;;;5.23;;
13185;SDS011;6658;53.080;7.428;2023-06-19T10:40:43;4.37;;;3.97;;
13185;SDS011;6658;53.080;7.428;2023-06-19T10:43:10;4.77;;;4.37;;
13185;SDS011;6658;53.080;7.428;2023-06-19T10:45:44;5.20;;;4.10;;
13185;SDS011;6658;53.080;7.428;2023-06-19T10:48:10;4.70;;;4.40;;
13185;SDS011;6658;53.080;7.428;2023-06-19T10:50:37;5.80;;;5.00;;
13185;SDS011;6658;53.080;7.428;2023-06-19T10:53:06;5.87;;;4.70;;
13185;SDS011;6658;53.080;7.428;2023-06-19T10:55:32;5.27;;;4.87;;
13185;SDS011;6658;53.080;7.428;2023-06-19T10:57:58;11.87;;;5.20;;
13185;SDS011;6658;53.080;7.428;2023-06-19T11:02:49;4.57;;;4.17;;
13185;SDS011;6658;53.080;7.428;2023-06-19T11:05:15;4.57;;;4.17;;
13185;SDS011;6658;53.080;7.428;2023-06-19T11:07:44;4.07;;;3.77;;
13185;SDS011;6658;53.080;7.428;2023-06-19T11:10:25;3.60;;;3.37;;
13185;SDS011;6658;53.080;7.428;2023-06-19T11:12:55;4.75;;;3.95;;
13185;SDS011;6658;53.080;7.428;2023-06-19T11:15:31;3.90;;;3.60;;
13185;SDS011;6658;53.080;7.428;2023-06-19T11:17:58;4.10;;;3.80;;
13185;SDS011;6658;53.080;7.428;2023-06-19T11:20:25;4.50;;;4.00;;
13185;SDS011;6658;53.080;7.428;2023-06-19T11:22:54;6.00;;;3.85;;
13185;SDS011;6658;53.080;7.428;2023-06-19T11:25:34;4.05;;;3.65;;
13185;SDS011;6658;53.080;7.428;2023-06-19T11:28:04;7.03;;;4.30;;
13185;SDS011;6658;53.080;7.428;2023-06-19T11:30:36;3.80;;;3.50;;
13185;SDS011;6658;53.080;7.428;2023-06-19T11:33:02;4.00;;;3.60;;
13185;SDS011;6658;53.080;7.428;2023-06-19T11:35:36;3.92;;;3.63;;
13185;SDS011;6658;53.080;7.428;2023-06-19T11:38:04;4.28;;;3.83;;
13185;SDS011;6658;53.080;7.428;2023-06-19T11:40:38;5.70;;;3.92;;
13185;SDS011;6658;53.080;7.428;2023-06-19T11:43:04;4.80;;;4.30;;
13185;SDS011;6658;53.080;7.428;2023-06-19T11:45:30;5.35;;;4.00;;
13185;SDS011;6658;53.080;7.428;2023-06-19T11:47:55;3.85;;;3.30;;
13185;SDS011;6658;53.080;7.428;2023-06-19T11:50:26;4.30;;;3.83;;
13185;SDS011;6658;53.080;7.428;2023-06-19T11:52:52;3.97;;;3.65;;
13185;SDS011;6658;53.080;7.428;2023-06-19T11:55:18;4.53;;;4.13;;
13185;SDS011;6658;53.080;7.428;2023-06-19T11:57:44;4.13;;;3.72;;
13185;SDS011;6658;53.080;7.428;2023-06-19T12:00:14;4.22;;;3.78;;
13185;SDS011;6658;53.080;7.428;2023-06-19T12:02:40;5.15;;;4.05;;
13185;SDS011;6658;53.080;7.428;2023-06-19T12:05:06;5.10;;;3.95;;
13185;SDS011;6658;53.080;7.428;2023-06-19T12:07:32;4.65;;;4.25;;
13185;SDS011;6658;53.080;7.428;2023-06-19T12:09:58;4.13;;;3.83;;
13185;SDS011;6658;53.080;7.428;2023-06-19T12:12:24;4.68;;;3.90;;
13185;SDS011;6658;53.080;7.428;2023-06-19T12:14:51;3.90;;;3.60;;
13185;SDS011;6658;53.080;7.428;2023-06-19T12:17:17;4.35;;;4.00;;
13185;SDS011;6658;53.080;7.428;2023-06-19T12:19:42;5.45;;;3.85;;
13185;SDS011;6658;53.080;7.428;2023-06-19T12:22:08;6.15;;;4.10;;
13185;SDS011;6658;53.080;7.428;2023-06-19T12:24:34;5.10;;;4.38;;
13185;SDS011;6658;53.080;7.428;2023-06-19T12:26:59;4.82;;;4.32;;
13185;SDS011;6658;53.080;7.428;2023-06-19T12:29:25;3.65;;;3.33;;
13185;SDS011;6658;53.080;7.428;2023-06-19T12:31:51;4.78;;;3.30;;
13185;SDS011;6658;53.080;7.428;2023-06-19T12:34:24;3.17;;;2.88;;
13185;SDS011;6658;53.080;7.428;2023-06-19T12:36:50;6.13;;;3.10;;
13185;SDS011;6658;53.080;7.428;2023-06-19T12:39:15;3.67;;;3.38;;
13185;SDS011;6658;53.080;7.428;2023-06-19T12:41:41;3.13;;;2.92;;
13185;SDS011;6658;53.080;7.428;2023-06-19T12:44:08;3.47;;;3.17;;
13185;SDS011;6658;53.080;7.428;2023-06-19T12:46:33;3.30;;;3.08;;
13185;SDS011;6658;53.080;7.428;2023-06-19T12:48:59;3.42;;;3.22;;
13185;SDS011;6658;53.080;7.428;2023-06-19T12:51:25;3.17;;;2.95;;
13185;SDS011;6658;53.080;7.428;2023-06-19T12:53:51;3.90;;;3.45;;
13185;SDS011;6658;53.080;7.428;2023-06-19T12:56:16;4.18;;;3.28;;
13185;SDS011;6658;53.080;7.428;2023-06-19T12:58:42;4.00;;;3.70;;
13185;SDS011;6658;53.080;7.428;2023-06-19T13:01:07;3.70;;;3.40;;
13185;SDS011;6658;53.080;7.428;2023-06-19T13:03:33;4.25;;;3.50;;
13185;SDS011;6658;53.080;7.428;2023-06-19T13:05:59;3.83;;;3.53;;
13185;SDS011;6658;53.080;7.428;2023-06-19T13:08:25;5.38;;;4.00;;
13185;SDS011;6658;53.080;7.428;2023-06-19T13:10:50;3.83;;;3.35;;
13185;SDS011;6658;53.080;7.428;2023-06-19T13:13:16;4.07;;;3.75;;
13185;SDS011;6658;53.080;7.428;2023-06-19T13:15:42;4.28;;;3.40;;
13185;SDS011;6658;53.080;7.428;2023-06-19T13:18:07;6.07;;;3.60;;
13185;SDS011;6658;53.080;7.428;2023-06-19T13:20:33;5.10;;;3.85;;
13185;SDS011;6658;53.080;7.428;2023-06-19T13:22:59;5.05;;;3.55;;
13185;SDS011;6658;53.080;7.428;2023-06-19T13:25:24;3.80;;;3.50;;
13185;SDS011;6658;53.080;7.428;2023-06-19T13:27:50;4.60;;;3.78;;
13185;SDS011;6658;53.080;7.428;2023-06-19T13:30:16;4.22;;;3.70;;
13185;SDS011;6658;53.080;7.428;2023-06-19T13:32:42;3.80;;;3.50;;
13185;SDS011;6658;53.080;7.428;2023-06-19T13:35:08;4.07;;;3.78;;
13185;SDS011;6658;53.080;7.428;2023-06-19T13:37:34;4.07;;;3.65;;
13185;SDS011;6658;53.080;7.428;2023-06-19T13:40:00;3.92;;;3.63;;
13185;SDS011;6658;53.080;7.428;2023-06-19T13:42:29;3.90;;;3.58;;
13185;SDS011;6658;53.080;7.428;2023-06-19T13:44:55;4.47;;;4.07;;
13185;SDS011;6658;53.080;7.428;2023-06-19T13:47:21;3.75;;;3.45;;
13185;SDS011;6658;53.080;7.428;2023-06-19T13:49:47;4.22;;;3.65;;
13185;SDS011;6658;53.080;7.428;2023-06-19T13:52:12;4.15;;;3.75;;
13185;SDS011;6658;53.080;7.428;2023-06-19T13:54:38;5.07;;;3.60;;
13185;SDS011;6658;53.080;7.428;2023-06-19T13:57:03;6.30;;;3.80;;
13185;SDS011;6658;53.080;7.428;2023-06-19T13:59:29;4.80;;;3.88;;
13185;SDS011;6658;53.080;7.428;2023-06-19T14:01:55;5.00;;;3.78;;
13185;SDS011;6658;53.080;7.428;2023-06-19T14:04:21;4.55;;;4.13;;
13185;SDS011;6658;53.080;7.428;2023-06-19T14:06:47;4.40;;;4.00;;
13185;SDS011;6658;53.080;7.428;2023-06-19T14:09:13;4.32;;;3.92;;
13185;SDS011;6658;53.080;7.428;2023-06-19T14:11:38;4.85;;;4.00;;
13185;SDS011;6658;53.080;7.428;2023-06-19T14:14:04;4.95;;;3.80;;
13185;SDS011;6658;53.080;7.428;2023-06-19T14:16:30;4.90;;;3.90;;
13185;SDS011;6658;53.080;7.428;2023-06-19T14:18:56;3.60;;;3.30;;
13185;SDS011;6658;53.080;7.428;2023-06-19T14:21:22;4.43;;;3.45;;
13185;SDS011;6658;53.080;7.428;2023-06-19T14:23:48;4.05;;;3.22;;
13185;SDS011;6658;53.080;7.428;2023-06-19T14:26:14;4.20;;;3.80;;
13185;SDS011;6658;53.080;7.428;2023-06-19T14:28:40;4.38;;;3.97;;
13185;SDS011;6658;53.080;7.428;2023-06-19T14:31:05;4.00;;;3.60;;
13185;SDS011;6658;53.080;7.428;2023-06-19T14:33:31;5.68;;;3.85;;
13185;SDS011;6658;53.080;7.428;2023-06-19T14:35:58;6.50;;;3.70;;
13185;SDS011;6658;53.080;7.428;2023-06-19T14:38:24;5.20;;;4.03;;
13185;SDS011;6658;53.080;7.428;2023-06-19T14:40:56;5.03;;;4.50;;
13185;SDS011;6658;53.080;7.428;2023-06-19T14:43:25;5.25;;;3.75;;
13185;SDS011;6658;53.080;7.428;2023-06-19T14:45:51;4.40;;;4.00;;
13185;SDS011;6658;53.080;7.428;2023-06-19T14:48:17;5.38;;;4.00;;
13185;SDS011;6658;53.080;7.428;2023-06-19T14:50:43;5.53;;;4.75;;
13185;SDS011;6658;53.080;7.428;2023-06-19T14:53:09;4.40;;;4.00;;
13185;SDS011;6658;53.080;7.428;2023-06-19T14:55:35;4.43;;;4.03;;
13185;SDS011;6658;53.080;7.428;2023-06-19T14:58:03;6.65;;;4.10;;
13185;SDS011;6658;53.080;7.428;2023-06-19T15:00:28;4.83;;;3.63;;
13185;SDS011;6658;53.080;7.428;2023-06-19T15:02:54;5.13;;;4.40;;
13185;SDS011;6658;53.080;7.428;2023-06-19T15:05:20;4.33;;;3.93;;
13185;SDS011;6658;53.080;7.428;2023-06-19T15:07:45;5.40;;;4.22;;
13185;SDS011;6658;53.080;7.428;2023-06-19T15:10:11;5.28;;;4.07;;
13185;SDS011;6658;53.080;7.428;2023-06-19T15:12:37;5.40;;;4.17;;
13185;SDS011;6658;53.080;7.428;2023-06-19T15:15:03;4.33;;;3.93;;